Time;durP1;ratioP1;P1;durP2;ratioP2;P2;SDS_P1;SDS_P2;PMS_P1;PMS_P2;Temp;Humidity;BMP_temperature;BMP_pressure;BME280_temperature;BME280_humidity;BME280_pressure;Samples;Min_cycle;Max_cycle;Signal;HPM_P1;HPM_P2
2022/02/13 00:01:13;;;;;;;28.08;18.80;;;7.20;99.90;;;;;;5093880;28;20401;-73
2022/02/13 00:03:39;;;;;;;15.25;9.98;;;7.10;99.90;;;;;;5093932;28;20134;-73
2022/02/13 00:06:05;;;;;;;14.25;8.93;;;7.20;99.90;;;;;;5094107;28;20060;-73
2022/02/13 00:08:30;;;;;;;15.30;8.90;;;7.20;99.90;;;;;;5093939;28;20028;-73
2022/02/13 00:10:56;;;;;;;16.73;9.75;;;7.20;99.90;;;;;;5093962;28;20482;-73
2022/02/13 00:13:22;;;;;;;16.50;11.00;;;7.20;99.90;;;;;;5093926;28;20390;-73
2022/02/13 00:15:47;;;;;;;17.80;11.07;;;7.10;99.90;;;;;;5093891;28;20024;-73
2022/02/13 00:18:13;;;;;;;12.73;8.57;;;7.20;99.90;;;;;;5094133;28;20039;-73
2022/02/13 00:20:38;;;;;;;16.25;10.05;;;7.20;99.90;;;;;;5092561;28;20028;-73
2022/02/13 00:23:05;;;;;;;16.35;9.45;;;7.20;99.90;;;;;;5092509;28;20028;-73
2022/02/13 00:25:30;;;;;;;15.45;11.32;;;7.20;99.90;;;;;;5093752;28;20024;-73
2022/02/13 00:27:56;;;;;;;13.82;9.90;;;7.20;99.90;;;;;;5093883;28;20024;-73
2022/02/13 00:30:22;;;;;;;18.98;10.40;;;7.20;99.90;;;;;;5093647;28;20016;-73
2022/02/13 00:32:50;;;;;;;16.60;11.00;;;7.20;99.90;;;;;;5093920;28;20028;-73
2022/02/13 00:35:15;;;;;;;13.93;9.70;;;7.20;99.90;;;;;;5093583;28;20065;-73
2022/02/13 00:37:42;;;;;;;19.27;10.25;;;7.10;99.90;;;;;;5093145;28;20401;-73
2022/02/13 00:40:08;;;;;;;14.88;9.15;;;7.20;99.90;;;;;;5093520;28;20020;-73
2022/02/13 00:42:34;;;;;;;15.00;9.13;;;7.20;99.90;;;;;;5093510;28;20105;-73
2022/02/13 00:45:00;;;;;;;16.02;8.85;;;7.20;99.90;;;;;;5093504;28;20107;-73
2022/02/13 00:47:26;;;;;;;22.67;9.77;;;7.20;99.90;;;;;;5093380;28;20371;-73
2022/02/13 00:49:52;;;;;;;22.63;14.82;;;7.20;99.90;;;;;;5092166;28;20069;-73
2022/02/13 00:52:18;;;;;;;17.25;12.80;;;7.20;99.90;;;;;;5093411;28;20370;-73
2022/02/13 00:54:44;;;;;;;15.90;11.95;;;7.20;99.90;;;;;;5093291;28;20363;-73
2022/02/13 00:57:09;;;;;;;15.55;8.77;;;7.30;99.90;;;;;;5093817;28;20062;-73
2022/02/13 00:59:35;;;;;;;15.20;11.30;;;7.20;99.90;;;;;;5093581;28;20024;-73
2022/02/13 01:02:01;;;;;;;12.65;7.82;;;7.30;99.90;;;;;;5093507;28;20107;-73
2022/02/13 01:04:26;;;;;;;14.65;9.70;;;7.20;99.90;;;;;;5093104;28;20040;-73
2022/02/13 01:06:52;;;;;;;12.23;7.60;;;7.20;99.90;;;;;;5093210;28;20397;-73
2022/02/13 01:09:18;;;;;;;13.50;6.63;;;7.20;99.90;;;;;;5093762;28;20062;-73
2022/02/13 01:11:43;;;;;;;15.23;7.38;;;7.20;99.90;;;;;;5093155;28;20020;-73
2022/02/13 01:14:09;;;;;;;14.23;7.32;;;7.20;99.90;;;;;;5093153;28;20102;-73
2022/02/13 01:16:35;;;;;;;11.00;7.28;;;7.20;99.90;;;;;;5093148;28;20035;-74
2022/02/13 01:19:00;;;;;;;15.60;7.35;;;7.30;99.90;;;;;;5093139;28;20024;-73
2022/02/13 01:21:29;;;;;;;11.95;6.20;;;7.30;99.90;;;;;;5093092;28;20401;-73
2022/02/13 01:23:55;;;;;;;11.38;5.80;;;7.30;99.90;;;;;;5093160;28;20035;-73
2022/02/13 01:26:21;;;;;;;16.52;6.45;;;7.20;99.90;;;;;;5091770;28;20396;-73
2022/02/13 01:28:47;;;;;;;11.05;6.18;;;7.20;99.90;;;;;;5093019;28;20028;-73
2022/02/13 01:31:13;;;;;;;12.93;5.95;;;7.20;99.90;;;;;;5093102;28;20077;-73
2022/02/13 01:33:39;;;;;;;8.57;5.30;;;7.20;99.90;;;;;;5093050;28;20185;-73
2022/02/13 01:36:05;;;;;;;10.15;6.35;;;7.20;99.90;;;;;;5092995;28;20028;-73
2022/02/13 01:38:31;;;;;;;11.02;6.38;;;7.20;99.90;;;;;;5092973;28;20504;-73
2022/02/13 01:40:57;;;;;;;11.70;6.60;;;7.20;99.90;;;;;;5092934;28;20024;-73
2022/02/13 01:43:23;;;;;;;10.75;5.55;;;7.20;99.90;;;;;;5092958;28;20121;-73
2022/02/13 01:45:49;;;;;;;11.65;5.72;;;7.20;99.90;;;;;;5092877;28;20474;-73
2022/02/13 01:48:15;;;;;;;13.77;6.38;;;7.20;99.90;;;;;;5092807;28;20064;-73
2022/02/13 01:50:42;;;;;;;9.95;5.93;;;7.20;99.90;;;;;;5095758;28;20044;-73
2022/02/13 01:53:12;;;;;;;13.93;6.32;;;7.20;99.90;;;;;;5096900;28;20020;-73
2022/02/13 01:55:38;;;;;;;11.05;5.82;;;7.20;99.90;;;;;;5096620;28;20043;-73
2022/02/13 01:58:05;;;;;;;15.05;6.47;;;7.20;99.90;;;;;;5096824;28;20473;-73
2022/02/13 02:00:31;;;;;;;14.48;6.25;;;7.20;99.90;;;;;;5096540;28;20024;-73
2022/02/13 02:02:56;;;;;;;13.93;7.15;;;7.20;99.90;;;;;;5096109;28;20039;-73
2022/02/13 02:05:22;;;;;;;12.85;6.07;;;7.20;99.90;;;;;;5096428;28;20512;-73
2022/02/13 02:07:48;;;;;;;12.75;5.50;;;7.20;99.90;;;;;;5096301;28;20020;-73
2022/02/13 02:10:21;;;;;;;10.90;5.07;;;7.20;99.90;;;;;;5096587;28;20066;-73
2022/02/13 02:12:47;;;;;;;10.00;5.15;;;7.20;99.90;;;;;;5096383;28;20024;-73
2022/02/13 02:15:12;;;;;;;10.23;5.60;;;7.20;99.90;;;;;;5096226;28;20036;-73
2022/02/13 02:17:38;;;;;;;10.45;5.15;;;7.20;99.90;;;;;;5096203;28;20020;-73
2022/02/13 02:20:04;;;;;;;10.25;5.93;;;7.20;99.90;;;;;;5096396;28;20386;-73
2022/02/13 02:22:30;;;;;;;8.38;5.05;;;7.20;99.90;;;;;;5094812;28;20023;-73
2022/02/13 02:24:56;;;;;;;10.15;5.47;;;7.20;99.90;;;;;;5096094;28;20024;-73
2022/02/13 02:27:21;;;;;;;10.40;5.28;;;7.20;99.90;;;;;;5095921;28;20017;-73
2022/02/13 02:29:47;;;;;;;12.77;5.30;;;7.30;99.90;;;;;;5095921;28;20024;-73
2022/02/13 02:32:13;;;;;;;11.20;5.80;;;7.30;99.90;;;;;;5095859;28;20023;-74
2022/02/13 02:34:40;;;;;;;10.70;6.13;;;7.40;99.90;;;;;;5095827;28;20028;-73
2022/02/13 02:37:06;;;;;;;10.80;6.00;;;7.40;99.90;;;;;;5095827;28;20024;-73
2022/02/13 02:39:33;;;;;;;11.30;5.22;;;7.30;99.90;;;;;;5095762;28;20455;-73
2022/02/13 02:41:59;;;;;;;10.15;5.95;;;7.40;99.90;;;;;;5095710;28;20024;-73
2022/02/13 02:44:24;;;;;;;9.60;4.65;;;7.40;99.90;;;;;;5095695;28;20028;-73
2022/02/13 02:46:50;;;;;;;9.25;5.70;;;7.30;99.90;;;;;;5095871;28;20417;-73
2022/02/13 02:49:17;;;;;;;11.48;5.30;;;7.40;99.90;;;;;;5095803;28;20031;-73
2022/02/13 02:51:43;;;;;;;7.50;4.22;;;7.40;99.90;;;;;;5095876;28;20103;-73
2022/02/13 02:54:09;;;;;;;9.77;4.85;;;7.40;99.90;;;;;;5095427;28;20020;-73
2022/02/13 02:56:35;;;;;;;9.80;5.47;;;7.40;99.90;;;;;;5095985;28;20020;-73
2022/02/13 02:59:01;;;;;;;10.77;5.03;;;7.40;99.90;;;;;;5095387;28;20032;-73
2022/02/13 03:01:26;;;;;;;13.77;6.38;;;7.40;99.90;;;;;;5094955;28;20099;-73
2022/02/13 03:03:52;;;;;;;9.85;5.10;;;7.40;99.90;;;;;;5095114;28;20131;-73
2022/02/13 03:06:18;;;;;;;12.35;5.97;;;7.30;99.90;;;;;;5095334;28;20021;-73
2022/02/13 03:08:44;;;;;;;11.55;5.75;;;7.40;99.90;;;;;;5095330;28;20036;-73
2022/02/13 03:11:09;;;;;;;9.90;5.68;;;7.30;99.90;;;;;;5095374;28;20390;-73
2022/02/13 03:13:36;;;;;;;11.68;5.32;;;7.40;99.90;;;;;;5095124;28;20032;-73
2022/02/13 03:16:02;;;;;;;10.35;5.75;;;7.40;99.90;;;;;;5095069;28;20024;-73
2022/02/13 03:18:30;;;;;;;13.00;5.57;;;7.40;99.90;;;;;;5094996;28;20028;-73
2022/02/13 03:20:57;;;;;;;9.35;5.85;;;7.40;99.90;;;;;;5095017;28;20027;-73
2022/02/13 03:23:22;;;;;;;9.98;5.70;;;7.40;99.90;;;;;;5094946;28;20028;-73
2022/02/13 03:25:48;;;;;;;11.18;5.55;;;7.30;99.90;;;;;;5094852;28;20481;-73
2022/02/13 03:28:14;;;;;;;13.70;5.70;;;7.40;99.90;;;;;;5095030;28;20032;-73
2022/02/13 03:30:40;;;;;;;10.52;5.15;;;7.30;99.90;;;;;;5095295;28;20106;-73
2022/02/13 03:33:06;;;;;;;12.32;5.63;;;7.30;99.90;;;;;;5094745;28;20054;-73
2022/02/13 03:35:31;;;;;;;9.90;6.05;;;7.30;99.90;;;;;;5094707;28;20415;-73
2022/02/13 03:37:57;;;;;;;13.27;5.70;;;7.30;99.90;;;;;;5094910;28;20028;-73
2022/02/13 03:40:22;;;;;;;11.50;4.82;;;7.20;99.90;;;;;;5094603;28;20020;-73
2022/02/13 03:42:48;;;;;;;11.77;5.65;;;7.30;99.90;;;;;;5094544;28;20028;-73
2022/02/13 03:45:14;;;;;;;10.23;5.85;;;7.20;99.90;;;;;;5094777;28;20020;-74
2022/02/13 03:47:40;;;;;;;11.32;5.78;;;7.20;99.90;;;;;;5094648;28;20438;-73
2022/02/13 03:50:07;;;;;;;9.60;5.50;;;7.20;99.90;;;;;;5094454;28;20501;-73
2022/02/13 03:52:33;;;;;;;9.32;5.45;;;7.10;99.90;;;;;;5094409;28;20050;-73
2022/02/13 03:55:03;;;;;;;12.10;5.88;;;7.20;99.90;;;;;;5094230;28;20576;-73
2022/02/13 03:57:29;;;;;;;10.88;5.47;;;7.10;99.90;;;;;;5094306;28;20024;-73
2022/02/13 03:59:55;;;;;;;12.18;6.32;;;7.20;99.90;;;;;;5094206;28;20370;-73
2022/02/13 04:02:22;;;;;;;13.63;5.93;;;7.20;99.90;;;;;;5094180;28;20027;-73
2022/02/13 04:04:48;;;;;;;11.95;6.25;;;7.20;99.90;;;;;;5093983;28;20046;-73
2022/02/13 04:07:14;;;;;;;12.65;6.03;;;7.20;99.90;;;;;;5094365;28;20027;-73
2022/02/13 04:09:40;;;;;;;14.48;6.82;;;7.20;99.90;;;;;;5094236;28;20028;-73
2022/02/13 04:12:06;;;;;;;11.88;6.63;;;7.20;99.90;;;;;;5093332;28;20024;-73
2022/02/13 04:14:31;;;;;;;11.52;6.07;;;7.20;99.90;;;;;;5094573;28;20017;-73
2022/02/13 04:16:57;;;;;;;16.08;6.25;;;7.10;99.90;;;;;;5094191;28;20024;-73
2022/02/13 04:19:23;;;;;;;9.88;5.47;;;7.10;99.90;;;;;;5093882;28;20023;-73
2022/02/13 04:21:49;;;;;;;10.52;5.80;;;7.10;99.90;;;;;;5093843;28;20024;-73
2022/02/13 04:24:15;;;;;;;12.93;6.25;;;7.20;99.90;;;;;;5094096;28;20084;-73
2022/02/13 04:26:41;;;;;;;10.05;5.90;;;7.10;99.90;;;;;;5093758;28;20081;-73
2022/02/13 04:29:07;;;;;;;14.63;5.40;;;7.10;99.90;;;;;;5093649;28;20027;-73
2022/02/13 04:31:33;;;;;;;9.68;4.80;;;7.10;99.90;;;;;;5093733;28;20020;-73
2022/02/13 04:33:59;;;;;;;14.20;5.28;;;7.20;99.90;;;;;;5093920;28;20035;-73
2022/02/13 04:36:24;;;;;;;13.55;6.07;;;7.20;99.90;;;;;;5093883;28;20020;-73
2022/02/13 04:38:50;;;;;;;11.05;5.00;;;7.20;99.90;;;;;;5093617;28;20023;-73
2022/02/13 04:41:16;;;;;;;11.35;4.93;;;7.20;99.90;;;;;;5094068;28;20028;-73
2022/02/13 04:43:42;;;;;;;10.23;4.78;;;7.20;99.90;;;;;;5093488;28;20020;-73
2022/02/13 04:46:07;;;;;;;11.60;6.18;;;7.20;99.90;;;;;;5093738;28;20051;-73
2022/02/13 04:48:33;;;;;;;12.38;6.10;;;7.20;99.90;;;;;;5093688;28;20020;-73
2022/02/13 04:50:59;;;;;;;13.75;6.10;;;7.20;99.90;;;;;;5093402;28;20027;-73
2022/02/13 04:53:25;;;;;;;9.27;5.28;;;7.20;99.90;;;;;;5092105;28;20397;-73
2022/02/13 04:55:50;;;;;;;8.85;5.22;;;7.20;99.90;;;;;;5093268;28;20024;-74
2022/02/13 04:58:18;;;;;;;11.40;5.30;;;7.20;99.90;;;;;;5093372;28;20095;-73
2022/02/13 05:00:45;;;;;;;11.73;5.90;;;7.30;99.90;;;;;;5093317;28;20024;-73
2022/02/13 05:03:11;;;;;;;12.43;6.53;;;7.20;99.90;;;;;;5093536;28;20061;-73
2022/02/13 05:05:37;;;;;;;9.20;5.10;;;7.20;99.90;;;;;;5093065;28;20400;-73
2022/02/13 05:08:03;;;;;;;11.57;5.68;;;7.20;99.90;;;;;;5093416;28;20027;-73
2022/02/13 05:10:28;;;;;;;8.57;4.95;;;7.20;99.90;;;;;;5093259;28;20477;-73
2022/02/13 05:12:54;;;;;;;11.13;5.78;;;7.20;99.90;;;;;;5093512;28;20051;-73
2022/02/13 05:15:21;;;;;;;11.10;4.75;;;7.20;99.90;;;;;;5093428;28;20031;-73
2022/02/13 05:17:47;;;;;;;11.40;6.07;;;7.20;99.90;;;;;;5093162;28;20069;-73
2022/02/13 05:20:13;;;;;;;9.25;5.47;;;7.20;99.90;;;;;;5093150;28;20031;-73
2022/02/13 05:22:39;;;;;;;9.95;5.60;;;7.20;99.90;;;;;;5093176;28;20095;-73
2022/02/13 05:25:05;;;;;;;10.00;5.13;;;7.10;99.90;;;;;;5096906;28;20527;-73
2022/02/13 05:27:31;;;;;;;14.65;4.97;;;7.10;99.90;;;;;;5097020;28;20024;-73
2022/02/13 05:29:56;;;;;;;9.98;6.18;;;7.10;99.90;;;;;;5097165;28;20020;-73
2022/02/13 05:32:22;;;;;;;8.55;4.72;;;7.10;99.90;;;;;;5097332;28;20077;-73
2022/02/13 05:34:48;;;;;;;9.90;5.60;;;7.10;99.90;;;;;;5097535;28;20032;-73
2022/02/13 05:37:14;;;;;;;11.02;6.55;;;7.10;99.90;;;;;;5096967;28;20489;-73
2022/02/13 05:39:40;;;;;;;12.15;6.22;;;7.10;99.90;;;;;;5096971;28;20039;-73
2022/02/13 05:42:06;;;;;;;10.98;5.80;;;7.10;99.90;;;;;;5097462;28;20016;-73
2022/02/13 05:44:31;;;;;;;11.88;5.70;;;7.10;99.90;;;;;;5096498;28;20036;-73
2022/02/13 05:46:57;;;;;;;12.70;5.35;;;7.10;99.90;;;;;;5096809;28;20027;-73
2022/02/13 05:49:23;;;;;;;10.98;7.07;;;7.10;99.90;;;;;;5096674;28;20039;-73
2022/02/13 05:51:49;;;;;;;10.43;6.10;;;7.00;99.90;;;;;;5096727;28;20016;-73
2022/02/13 05:54:14;;;;;;;10.48;5.88;;;7.00;99.90;;;;;;5096908;28;20020;-73
2022/02/13 05:56:41;;;;;;;11.65;5.72;;;7.00;99.90;;;;;;5096646;28;20481;-73
2022/02/13 05:59:07;;;;;;;11.25;5.50;;;7.00;99.90;;;;;;5096563;28;20024;-73
2022/02/13 06:01:33;;;;;;;12.75;5.47;;;7.00;99.90;;;;;;5096548;28;20489;-73
2022/02/13 06:03:59;;;;;;;9.70;5.18;;;6.90;99.90;;;;;;5096270;28;20110;-73
2022/02/13 06:06:24;;;;;;;10.30;5.40;;;6.90;99.90;;;;;;5096424;28;20103;-73
2022/02/13 06:08:50;;;;;;;9.38;5.03;;;6.80;99.90;;;;;;5096322;28;20028;-73
2022/02/13 06:11:16;;;;;;;10.05;5.20;;;6.80;99.90;;;;;;5096612;28;20104;-73
2022/02/13 06:13:42;;;;;;;9.65;5.10;;;6.80;99.90;;;;;;5096607;28;20020;-73
2022/02/13 06:16:09;;;;;;;9.25;5.55;;;6.70;99.90;;;;;;5095281;28;20048;-73
2022/02/13 06:18:35;;;;;;;10.23;5.20;;;6.70;99.90;;;;;;5096466;28;20069;-73
2022/02/13 06:21:02;;;;;;;9.27;5.40;;;6.70;99.90;;;;;;5096140;28;20043;-73
2022/02/13 06:23:27;;;;;;;9.30;4.82;;;6.60;99.90;;;;;;5096130;28;20417;-73
2022/02/13 06:25:54;;;;;;;9.25;5.30;;;6.70;99.90;;;;;;5096361;28;20053;-73
2022/02/13 06:28:19;;;;;;;9.93;5.35;;;6.70;99.90;;;;;;5095922;28;20020;-73
2022/02/13 06:30:45;;;;;;;9.65;4.82;;;6.70;99.90;;;;;;5094647;28;20031;-73
2022/02/13 06:33:11;;;;;;;8.68;4.88;;;6.60;99.90;;;;;;5095899;28;20027;-73
2022/02/13 06:35:37;;;;;;;9.93;4.75;;;6.60;99.90;;;;;;5095144;28;20492;-73
2022/02/13 06:38:03;;;;;;;9.00;5.25;;;6.60;99.90;;;;;;5095819;28;20056;-73
2022/02/13 06:40:29;;;;;;;10.13;5.53;;;6.70;99.90;;;;;;5096102;28;20111;-73
2022/02/13 06:42:55;;;;;;;8.15;4.63;;;6.70;99.90;;;;;;5095725;28;20020;-73
2022/02/13 06:45:21;;;;;;;7.95;5.13;;;6.70;99.90;;;;;;5095717;28;20509;-73
2022/02/13 06:47:47;;;;;;;8.23;4.70;;;6.60;99.90;;;;;;5095857;28;20035;-73
2022/02/13 06:50:13;;;;;;;9.43;4.72;;;6.70;99.90;;;;;;5095601;28;20113;-73
2022/02/13 06:52:38;;;;;;;10.23;5.45;;;6.70;99.90;;;;;;5096147;28;20099;-73
2022/02/13 06:55:05;;;;;;;12.05;5.82;;;6.70;99.90;;;;;;5095412;28;20566;-73
2022/02/13 06:57:31;;;;;;;11.80;4.88;;;6.70;99.90;;;;;;5095730;28;20025;-73
2022/02/13 06:59:56;;;;;;;9.85;4.72;;;6.60;99.90;;;;;;5095461;28;20098;-73
2022/02/13 07:02:22;;;;;;;15.35;8.60;;;6.60;99.90;;;;;;5095390;28;20024;-73
2022/02/13 07:04:48;;;;;;;10.30;5.53;;;6.60;99.90;;;;;;5095140;28;20119;-73
2022/02/13 07:07:13;;;;;;;14.55;5.57;;;6.60;99.90;;;;;;5094016;28;20481;-73
2022/02/13 07:09:39;;;;;;;11.40;6.28;;;6.60;99.90;;;;;;5095151;28;20042;-73
2022/02/13 07:12:09;;;;;;;10.77;5.05;;;6.70;99.90;;;;;;5095193;28;20477;-73
2022/02/13 07:14:35;;;;;;;11.50;5.13;;;6.70;99.90;;;;;;5095469;28;20023;-73
2022/02/13 07:17:01;;;;;;;10.30;5.65;;;6.80;99.90;;;;;;5095109;28;20028;-73
2022/02/13 07:19:27;;;;;;;9.93;5.38;;;6.70;99.90;;;;;;5094984;28;20381;-73
2022/02/13 07:21:53;;;;;;;8.82;5.82;;;6.80;99.90;;;;;;5094984;28;20032;-74
2022/02/13 07:24:18;;;;;;;10.30;4.88;;;6.80;99.90;;;;;;5094890;28;20482;-73
2022/02/13 07:26:44;;;;;;;9.23;4.65;;;6.90;99.90;;;;;;5095162;28;20024;-73
2022/02/13 07:29:10;;;;;;;9.23;5.28;;;6.90;99.90;;;;;;5094794;28;20370;-73
2022/02/13 07:31:37;;;;;;;9.80;5.55;;;6.90;99.90;;;;;;5094816;28;20024;-73
2022/02/13 07:34:04;;;;;;;12.40;6.45;;;6.90;99.90;;;;;;5094749;28;20019;-73
2022/02/13 07:36:30;;;;;;;8.63;5.00;;;6.90;99.90;;;;;;5094701;28;20063;-73
2022/02/13 07:38:56;;;;;;;9.95;4.68;;;6.90;99.90;;;;;;5095193;28;20028;-73
2022/02/13 07:41:22;;;;;;;8.13;5.20;;;6.90;99.90;;;;;;5094652;28;20436;-73
2022/02/13 07:43:48;;;;;;;9.57;5.45;;;6.90;99.90;;;;;;5094546;28;20024;-73
2022/02/13 07:46:15;;;;;;;11.55;4.90;;;7.00;99.90;;;;;;5094173;28;20058;-73
2022/02/13 07:48:40;;;;;;;11.30;5.30;;;7.00;99.90;;;;;;5093958;28;20493;-73
2022/02/13 07:51:09;;;;;;;11.48;4.47;;;7.00;99.90;;;;;;5094412;28;20063;-73
2022/02/13 07:53:35;;;;;;;9.57;5.40;;;7.00;99.90;;;;;;5094420;28;20016;-73
2022/02/13 07:56:00;;;;;;;10.18;5.00;;;7.00;99.90;;;;;;5094256;28;20028;-73
2022/02/13 07:58:30;;;;;;;8.48;5.65;;;7.00;99.90;;;;;;5094610;28;20099;-73
2022/02/13 08:00:56;;;;;;;9.25;4.93;;;7.00;99.90;;;;;;5094279;28;20459;-73
2022/02/13 08:03:22;;;;;;;10.73;5.28;;;7.10;99.90;;;;;;5093986;28;20131;-73
2022/02/13 08:05:47;;;;;;;15.73;9.70;;;7.20;99.90;;;;;;5094409;28;20051;-73
2022/02/13 08:08:13;;;;;;;11.77;6.38;;;7.30;99.90;;;;;;5094580;28;20024;-73
2022/02/13 08:10:40;;;;;;;11.75;7.03;;;7.30;99.90;;;;;;5094343;28;20024;-73
2022/02/13 08:13:06;;;;;;;10.85;7.22;;;7.20;99.90;;;;;;5094032;28;20020;-73
2022/02/13 08:15:32;;;;;;;10.15;5.68;;;7.20;99.90;;;;;;5094210;28;20012;-73
2022/02/13 08:18:13;;;;;;;12.43;8.48;;;7.20;99.90;;;;;;5093861;28;20031;-73
2022/02/13 08:20:41;;;;;;;10.98;6.13;;;7.20;99.90;;;;;;5093931;28;20024;-73
2022/02/13 08:23:09;;;;;;;12.27;7.43;;;7.20;99.90;;;;;;5094159;28;20032;-73
2022/02/13 08:25:34;;;;;;;9.20;5.72;;;7.30;99.90;;;;;;5093802;28;20527;-73
2022/02/13 08:28:00;;;;;;;11.25;7.30;;;7.30;99.90;;;;;;5093718;28;20111;-73
2022/02/13 08:30:26;;;;;;;11.55;7.30;;;7.30;99.90;;;;;;5093992;28;20024;-73
2022/02/13 08:32:52;;;;;;;10.63;5.88;;;7.30;99.90;;;;;;5093719;28;20047;-73
2022/02/13 08:35:18;;;;;;;8.57;4.78;;;7.40;99.90;;;;;;5093698;28;20055;-73
2022/02/13 08:37:44;;;;;;;8.60;4.85;;;7.40;99.90;;;;;;5093546;28;20031;-73
2022/02/13 08:40:10;;;;;;;10.93;5.10;;;7.30;99.90;;;;;;5093845;28;20020;-74
2022/02/13 08:42:36;;;;;;;10.45;5.65;;;7.40;99.90;;;;;;5093598;28;20029;-73
2022/02/13 08:45:03;;;;;;;9.70;5.45;;;7.50;99.90;;;;;;5093521;28;20424;-73
2022/02/13 08:47:29;;;;;;;12.52;5.10;;;7.50;99.90;;;;;;5093517;28;20016;-73
2022/02/13 08:49:55;;;;;;;9.75;5.07;;;7.50;99.90;;;;;;5093457;28;20468;-73
2022/02/13 08:52:20;;;;;;;13.77;4.95;;;7.50;99.90;;;;;;5093465;28;20016;-73
2022/02/13 08:54:46;;;;;;;10.43;6.28;;;7.50;99.90;;;;;;5093513;28;20413;-73
2022/02/13 08:57:12;;;;;;;9.05;4.90;;;7.60;99.90;;;;;;5093662;28;20465;-73
2022/02/13 08:59:38;;;;;;;8.32;5.30;;;7.60;99.90;;;;;;5093337;28;20023;-73
2022/02/13 09:02:04;;;;;;;8.90;4.70;;;7.60;99.90;;;;;;5093309;28;20043;-73
2022/02/13 09:04:30;;;;;;;10.13;5.35;;;7.70;99.90;;;;;;5093098;28;20079;-73
2022/02/13 09:06:57;;;;;;;8.82;4.70;;;7.80;99.90;;;;;;5093292;28;20020;-73
2022/02/13 09:09:25;;;;;;;13.15;5.47;;;7.80;99.90;;;;;;5093189;28;20020;-73
2022/02/13 09:11:51;;;;;;;10.15;6.40;;;7.80;99.90;;;;;;5093445;28;20028;-73
2022/02/13 09:14:17;;;;;;;11.43;6.63;;;7.80;99.90;;;;;;5093774;28;20020;-73
2022/02/13 09:16:42;;;;;;;9.90;5.10;;;7.90;99.90;;;;;;5093192;28;20024;-73
2022/02/13 09:19:08;;;;;;;11.77;5.53;;;8.00;99.90;;;;;;5093135;28;20366;-73
2022/02/13 09:21:35;;;;;;;10.18;5.93;;;8.00;99.90;;;;;;5093425;28;20024;-73
2022/02/13 09:24:01;;;;;;;10.32;5.80;;;8.00;99.90;;;;;;5093126;28;20024;-73
2022/02/13 09:26:26;;;;;;;12.55;5.45;;;8.10;99.90;;;;;;5093346;28;20517;-73
2022/02/13 09:28:52;;;;;;;9.32;5.22;;;8.10;99.90;;;;;;5093210;28;20424;-73
2022/02/13 09:31:18;;;;;;;10.02;5.18;;;8.20;99.90;;;;;;5093101;28;20024;-73
2022/02/13 09:33:44;;;;;;;10.05;5.80;;;8.30;99.90;;;;;;5093332;28;20020;-73
2022/02/13 09:36:12;;;;;;;8.63;4.68;;;8.30;99.90;;;;;;5093032;28;20403;-73
2022/02/13 09:38:37;;;;;;;10.25;5.72;;;8.40;99.90;;;;;;5092994;28;20023;-73
2022/02/13 09:41:05;;;;;;;10.77;5.80;;;8.40;99.90;;;;;;5092965;28;20028;-74
2022/02/13 09:43:31;;;;;;;11.00;7.57;;;8.50;99.90;;;;;;5093184;28;20028;-73
2022/02/13 09:45:58;;;;;;;12.82;7.57;;;8.60;99.90;;;;;;5092942;28;20032;-73
2022/02/13 09:48:26;;;;;;;15.93;7.07;;;8.60;99.90;;;;;;5092817;28;20069;-73
2022/02/13 09:50:54;;;;;;;8.73;5.53;;;8.70;99.90;;;;;;5092862;28;20024;-73
2022/02/13 09:53:21;;;;;;;14.48;6.97;;;8.70;99.90;;;;;;5091543;28;20485;-73
2022/02/13 09:55:47;;;;;;;18.75;12.02;;;8.80;99.90;;;;;;5091479;28;20073;-73
2022/02/13 09:58:13;;;;;;;18.10;13.13;;;8.80;99.90;;;;;;5093090;28;20504;-73
2022/02/13 10:00:57;;;;;;;20.38;11.48;;;8.90;99.90;;;;;;5093043;28;20028;-73
2022/02/13 10:03:34;;;;;;;12.57;6.95;;;8.90;99.90;;;;;;5093012;28;20079;-73
2022/02/13 10:06:01;;;;;;;16.70;11.60;;;8.90;99.90;;;;;;5093319;28;20058;-74
2022/02/13 10:08:39;;;;;;;15.68;9.85;;;9.00;99.90;;;;;;5092902;28;20028;-73
2022/02/13 10:11:26;;;;;;;13.15;7.35;;;9.00;99.90;;;;;;5094539;28;20066;-74
2022/02/13 10:13:54;;;;;;;20.95;9.30;;;9.00;99.90;;;;;;5096639;28;20024;-73
2022/02/13 10:16:23;;;;;;;16.33;8.02;;;9.10;99.90;;;;;;5096332;28;20047;-73
2022/02/13 10:18:53;;;;;;;13.30;6.93;;;9.10;99.90;;;;;;5096534;28;20020;-73
2022/02/13 10:21:35;;;;;;;11.15;5.88;;;9.10;99.90;;;;;;5096224;28;20036;-73
2022/02/13 10:24:25;;;;;;;14.98;7.85;;;9.20;99.90;;;;;;5096484;28;20035;-73
2022/02/13 10:26:56;;;;;;;10.98;7.20;;;9.20;99.90;;;;;;5096385;28;20057;-73
2022/02/13 10:29:30;;;;;;;14.05;7.05;;;9.30;99.90;;;;;;5095944;28;20534;-73
2022/02/13 10:32:14;;;;;;;11.88;7.05;;;9.30;99.90;;;;;;5096312;28;20521;-73
2022/02/13 10:34:55;;;;;;;11.27;6.70;;;9.30;99.90;;;;;;5096446;28;20489;-73
2022/02/13 10:37:46;;;;;;;13.05;6.50;;;9.40;99.90;;;;;;5095915;28;20047;-73
2022/02/13 10:40:13;;;;;;;;;;;9.40;99.90;;;;;;5096304;28;20366;-74
2022/02/13 10:42:39;;;;;;;12.15;8.20;;;9.40;99.90;;;;;;5094519;28;19927;-73
2022/02/13 10:45:22;;;;;;;11.75;6.72;;;9.50;99.90;;;;;;5095725;28;20465;-73
2022/02/13 10:47:50;;;;;;;12.35;6.35;;;9.50;99.90;;;;;;5095618;28;20032;-73
2022/02/13 10:50:18;;;;;;;13.75;6.38;;;9.50;99.90;;;;;;5095667;28;20080;-73
2022/02/13 10:52:49;;;;;;;11.65;7.38;;;9.50;99.90;;;;;;5095586;28;20020;-73
2022/02/13 10:55:16;;;;;;;13.43;6.93;;;9.50;99.90;;;;;;5095506;28;20078;-74
2022/02/13 10:57:42;;;;;;;12.65;7.35;;;9.50;99.90;;;;;;5095742;28;20020;-73
2022/02/13 11:00:11;;;;;;;14.10;7.57;;;9.50;99.90;;;;;;5095458;28;20027;-73
2022/02/13 11:02:40;;;;;;;13.95;8.40;;;9.50;99.90;;;;;;5095394;28;20020;-73
2022/02/13 11:05:09;;;;;;;12.23;6.75;;;9.60;99.90;;;;;;5094966;28;20133;-74
2022/02/13 11:07:39;;;;;;;10.77;6.72;;;9.70;99.90;;;;;;5095357;28;20024;-73
2022/02/13 11:10:09;;;;;;;9.98;6.32;;;10.00;99.90;;;;;;5095562;28;20031;-73
2022/02/13 11:12:35;;;;;;;14.88;7.20;;;10.10;99.90;;;;;;5095200;28;20024;-73
2022/02/13 11:15:17;;;;;;;14.15;6.60;;;10.20;99.90;;;;;;5095415;28;20035;-73
2022/02/13 11:17:46;;;;;;;14.50;7.65;;;10.30;99.90;;;;;;5095678;28;20023;-73
2022/02/13 11:20:14;;;;;;;15.05;8.18;;;10.40;99.90;;;;;;5095341;28;20028;-73
2022/02/13 11:22:41;;;;;;;15.13;6.68;;;10.40;99.90;;;;;;5094770;28;20107;-73
2022/02/13 11:25:08;;;;;;;12.85;6.75;;;10.50;99.90;;;;;;5094928;28;20052;-73
2022/02/13 11:27:54;;;;;;;13.10;6.05;;;10.60;99.90;;;;;;5095151;28;20038;-73
2022/02/13 11:30:45;;;;;;;11.02;6.47;;;10.60;99.90;;;;;;5095118;28;20074;-73
2022/02/13 11:33:31;;;;;;;10.00;5.35;;;10.70;99.90;;;;;;5093325;28;20397;-74
2022/02/13 11:36:04;;;;;;;15.70;7.63;;;10.60;99.90;;;;;;5093190;28;20020;-73
2022/02/13 11:38:48;;;;;;;12.65;6.50;;;10.60;99.90;;;;;;5094655;28;20028;-73
2022/02/13 11:41:16;;;;;;;12.60;7.13;;;10.50;99.90;;;;;;5095242;28;20024;-73
2022/02/13 11:43:44;;;;;;;12.20;6.78;;;10.50;99.90;;;;;;5094882;28;20020;-73
2022/02/13 11:46:14;;;;;;;12.45;7.50;;;10.50;99.90;;;;;;5094540;28;20123;-73
2022/02/13 11:48:45;;;;;;;11.15;6.32;;;10.50;99.90;;;;;;5094480;28;20024;-73
2022/02/13 11:51:11;;;;;;;;;;;10.60;99.90;;;;;;5094907;28;20126;-73
2022/02/13 11:53:41;;;;;;;14.98;6.80;;;10.50;99.90;;;;;;5094704;28;19904;-73
2022/02/13 11:56:26;;;;;;;11.43;6.93;;;10.40;99.90;;;;;;5094421;28;20024;-74
2022/02/13 11:58:55;;;;;;;17.85;6.70;;;10.60;99.90;;;;;;5093034;28;20393;-73
2022/02/13 12:01:53;;;;;;;13.70;5.32;;;10.70;99.90;;;;;;5092988;28;20080;-73
2022/02/13 12:04:19;;;;;;;13.13;5.97;;;10.70;99.90;;;;;;5049200;28;20051;-73
2022/02/13 12:06:51;;;;;;;8.55;5.13;;;10.70;99.90;;;;;;5094007;28;20024;-73
2022/02/13 12:09:23;;;;;;;12.23;6.13;;;10.80;99.90;;;;;;5094097;28;20028;-73
2022/02/13 12:11:55;;;;;;;11.00;5.55;;;10.80;99.90;;;;;;5094118;28;20381;-74
2022/02/13 12:14:23;;;;;;;13.75;6.47;;;10.80;99.90;;;;;;5094080;28;20024;-74
2022/02/13 12:16:49;;;;;;;12.70;5.65;;;10.80;99.90;;;;;;5094006;28;20019;-74
2022/02/13 12:19:29;;;;;;;10.30;5.50;;;10.80;99.90;;;;;;5093955;28;20035;-74
2022/02/13 12:22:04;;;;;;;14.27;6.30;;;10.80;99.90;;;;;;5094545;28;20020;-73
2022/02/13 12:24:30;;;;;;;14.98;5.70;;;10.80;99.90;;;;;;5092579;28;20028;-74
2022/02/13 12:27:00;;;;;;;12.88;6.55;;;10.70;99.90;;;;;;5094060;28;20042;-73
2022/02/13 12:29:26;;;;;;;17.58;7.00;;;10.70;99.90;;;;;;5093700;28;20051;-73
2022/02/13 12:32:13;;;;;;;13.00;6.95;;;10.70;99.90;;;;;;5093726;28;20120;-73
2022/02/13 12:35:03;;;;;;;12.05;6.13;;;10.60;99.90;;;;;;5093171;28;20021;-73
2022/02/13 12:37:38;;;;;;;13.53;7.10;;;10.60;99.90;;;;;;5094282;28;20021;-74
2022/02/13 12:40:05;;;;;;;17.70;7.25;;;10.60;99.90;;;;;;5092089;28;20689;-74
2022/02/13 12:42:33;;;;;;;12.88;6.57;;;10.50;99.90;;;;;;5093535;28;20024;-73
2022/02/13 12:45:05;;;;;;;17.55;8.48;;;10.50;99.90;;;;;;5094145;28;20018;-73
2022/02/13 12:47:32;;;;;;;16.10;8.48;;;10.50;99.90;;;;;;5093823;28;20429;-73
2022/02/13 12:50:07;;;;;;;16.05;8.70;;;10.50;99.90;;;;;;5093427;28;20069;-74